Terminal Aerodrome Forecast
Issued by NWS Tallahassee, FL

Home | Current Version | Previous Version | Text Only | Print | Product List | Glossary On
Versions: 1 2 3 4 5 6 7 8 9 10 11 12 13 14 15
222
FTUS42 KTAE 221406 AAA
TAFTLH
TAF AMD
KTLH 221406Z 2214/2312 03006KT P6SM BKN015
      TEMPO 2214/2215 3SM BR OVC005
     FM230000 03005KT 3SM -RA OVC015=

USA.gov is the U.S. government's official web portal to all federal, state and local government web resources and services.